Terminal Aerodrome Forecast
Issued by NWS

Home | Current Version | Previous Version | Text Only | Print | Product List | Glossary On
Versions: 1 2 3 4 5 6 7 8 9 10 11 12
000
FTUS44 KLIX 271100
TAFMCB
TAF
KMCB 271127Z 2712/2812 11006KT P6SM SCT005 OVC015
      TEMPO 2712/2716 1SM SHRA BR OVC008
     FM271600 16007KT 3SM RA BR OVC008
     FM272200 18005KT 1SM +SHRA BR OVC003=

USA.gov is the U.S. government's official web portal to all federal, state and local government web resources and services.